createdAt,value
2023-01-05T00:01:46.752Z,9.80
2023-01-05T00:04:15.069Z,9.80
2023-01-05T00:06:42.353Z,9.80
2023-01-05T00:09:12.368Z,9.80
2023-01-05T00:11:57.652Z,9.70
2023-01-05T00:14:46.135Z,9.70
2023-01-05T00:17:34.191Z,9.60
2023-01-05T00:20:19.490Z,9.60
2023-01-05T00:22:46.008Z,9.50
2023-01-05T00:25:16.411Z,9.40
2023-01-05T00:27:44.689Z,9.40
2023-01-05T00:30:13.883Z,9.40
2023-01-05T00:32:42.116Z,9.30
2023-01-05T00:35:10.004Z,9.30
2023-01-05T00:37:39.962Z,9.30
2023-01-05T00:40:11.423Z,9.30
2023-01-05T00:42:38.514Z,9.30
2023-01-05T00:45:07.575Z,9.40
2023-01-05T00:47:34.375Z,9.30
2023-01-05T00:50:00.977Z,9.30
2023-01-05T00:52:27.818Z,9.30
2023-01-05T00:54:54.665Z,9.30
2023-01-05T00:57:21.599Z,9.30
2023-01-05T00:59:48.241Z,9.30
2023-01-05T01:02:14.997Z,9.20
2023-01-05T01:04:42.187Z,9.20
2023-01-05T01:07:08.891Z,9.20
2023-01-05T01:09:35.616Z,9.20
2023-01-05T01:12:02.488Z,9.20
2023-01-05T01:14:29.281Z,9.20
2023-01-05T01:16:56.350Z,9.20
2023-01-05T01:19:25.354Z,9.20
2023-01-05T01:21:52.226Z,9.30
2023-01-05T01:24:22.707Z,9.20
2023-01-05T01:26:49.522Z,9.20
2023-01-05T01:29:19.400Z,9.20
2023-01-05T01:31:50.650Z,9.20
2023-01-05T01:34:17.922Z,9.30
2023-01-05T01:36:45.373Z,9.30
2023-01-05T01:39:14.149Z,9.30
2023-01-05T01:41:44.612Z,9.30
2023-01-05T01:44:49.086Z,9.30
2023-01-05T01:47:21.911Z,9.30
2023-01-05T01:49:49.196Z,9.30
2023-01-05T01:52:16.459Z,9.30
2023-01-05T01:54:43.252Z,9.30
2023-01-05T01:57:11.709Z,9.20
2023-01-05T01:59:38.659Z,9.20
2023-01-05T02:02:07.841Z,9.10
2023-01-05T02:04:36.804Z,9.10
2023-01-05T02:07:04.311Z,9.10
2023-01-05T02:09:31.900Z,9.10
2023-01-05T02:12:02.890Z,9.00
2023-01-05T02:14:51.703Z,9.00
2023-01-05T02:17:39.462Z,9.10
2023-01-05T02:20:25.593Z,9.10
2023-01-05T02:23:15.324Z,9.10
2023-01-05T02:26:20.039Z,9.00
2023-01-05T02:29:08.320Z,8.90
2023-01-05T02:31:48.719Z,9.00
2023-01-05T02:34:57.846Z,8.90
2023-01-05T02:37:42.103Z,9.00
2023-01-05T02:40:29.315Z,9.00
2023-01-05T02:43:01.540Z,9.00
2023-01-05T02:45:28.293Z,8.90
2023-01-05T02:47:59.852Z,9.00
2023-01-05T02:50:38.219Z,9.00
2023-01-05T02:53:30.024Z,9.00
2023-01-05T02:56:03.156Z,8.90
2023-01-05T02:58:39.298Z,8.90
2023-01-05T03:01:14.524Z,8.90
2023-01-05T03:04:03.210Z,8.90
2023-01-05T03:06:47.048Z,8.90
2023-01-05T03:09:19.864Z,8.90
2023-01-05T03:12:25.860Z,8.90
2023-01-05T03:15:21.422Z,8.90
2023-01-05T03:17:52.048Z,8.90
2023-01-05T03:20:26.180Z,8.80
2023-01-05T03:23:16.346Z,8.80
2023-01-05T03:26:02.097Z,8.80
2023-01-05T03:28:57.737Z,8.80
2023-01-05T03:32:02.687Z,8.70
2023-01-05T03:35:15.719Z,8.70
2023-01-05T03:38:04.619Z,8.70
2023-01-05T03:40:35.002Z,8.60
2023-01-05T03:43:03.372Z,8.60
2023-01-05T03:45:43.327Z,8.60
2023-01-05T03:48:15.747Z,8.60
2023-01-05T03:50:42.381Z,8.60
2023-01-05T03:53:13.231Z,8.60
2023-01-05T03:55:41.431Z,8.60
2023-01-05T03:58:08.277Z,8.60
2023-01-05T04:00:36.342Z,8.60
2023-01-05T04:03:10.495Z,8.60
2023-01-05T04:05:38.395Z,8.60
2023-01-05T04:08:05.759Z,8.60
2023-01-05T04:10:35.256Z,8.60
2023-01-05T04:13:02.119Z,8.60
2023-01-05T04:15:29.044Z,8.50
2023-01-05T04:17:56.000Z,8.50
2023-01-05T04:20:22.665Z,8.60
2023-01-05T04:22:50.056Z,8.50
2023-01-05T04:25:19.319Z,8.60
2023-01-05T04:27:47.061Z,8.60
2023-01-05T04:30:15.163Z,8.50
2023-01-05T04:32:42.382Z,8.50
2023-01-05T04:35:13.018Z,8.60
2023-01-05T04:37:41.473Z,8.60
2023-01-05T04:40:09.646Z,8.60
2023-01-05T04:42:44.433Z,8.50
2023-01-05T04:45:11.333Z,8.60
2023-01-05T04:47:38.256Z,8.60
2023-01-05T04:50:05.967Z,8.50
2023-01-05T04:52:32.923Z,8.50
2023-01-05T04:54:59.807Z,8.50
2023-01-05T04:57:27.688Z,8.40
2023-01-05T04:59:54.316Z,8.40
2023-01-05T05:02:22.443Z,8.40
2023-01-05T05:04:50.456Z,8.40
2023-01-05T05:07:18.472Z,8.40
2023-01-05T05:09:45.242Z,8.40
2023-01-05T05:12:13.313Z,8.40
2023-01-05T05:14:40.241Z,8.40
2023-01-05T05:17:07.307Z,8.40
2023-01-05T05:19:34.432Z,8.40
2023-01-05T05:22:01.809Z,8.40
2023-01-05T05:24:28.576Z,8.50
2023-01-05T05:26:57.280Z,8.50
2023-01-05T05:29:24.640Z,8.40
2023-01-05T05:31:52.181Z,8.40
2023-01-05T05:34:19.491Z,8.40
2023-01-05T05:36:46.068Z,8.40
2023-01-05T05:39:14.176Z,8.40
2023-01-05T05:41:41.073Z,8.40
2023-01-05T05:44:08.800Z,8.40
2023-01-05T05:46:35.469Z,8.40
2023-01-05T05:49:02.125Z,8.30
2023-01-05T05:51:28.819Z,8.30
2023-01-05T05:53:55.514Z,8.40
2023-01-05T05:56:23.302Z,8.40
2023-01-05T05:58:49.915Z,8.30
2023-01-05T06:01:16.588Z,8.30
2023-01-05T06:03:43.345Z,8.30
2023-01-05T06:06:10.112Z,8.20
2023-01-05T06:08:36.751Z,8.20
2023-01-05T06:11:04.493Z,8.20
2023-01-05T06:13:31.231Z,8.20
2023-01-05T06:15:57.990Z,8.20
2023-01-05T06:18:24.681Z,8.20
2023-01-05T06:20:56.306Z,8.20
2023-01-05T06:23:26.224Z,8.20
2023-01-05T06:25:52.853Z,8.20
2023-01-05T06:28:20.517Z,8.20
2023-01-05T06:30:47.524Z,8.20
2023-01-05T06:33:14.127Z,8.20
2023-01-05T06:35:40.817Z,8.20
2023-01-05T06:38:08.085Z,8.20
2023-01-05T06:40:34.950Z,8.20
2023-01-05T06:43:01.556Z,8.20
2023-01-05T06:45:28.265Z,8.20
2023-01-05T06:47:55.027Z,8.20
2023-01-05T06:50:21.860Z,8.20
2023-01-05T06:52:48.523Z,8.20
2023-01-05T06:55:15.218Z,8.30
2023-01-05T06:57:41.882Z,8.30
2023-01-05T07:00:11.680Z,8.30
2023-01-05T07:02:38.623Z,8.30
2023-01-05T07:05:05.816Z,8.30
2023-01-05T07:07:32.611Z,8.30
2023-01-05T07:09:59.551Z,8.30
2023-01-05T07:12:26.301Z,8.30
2023-01-05T07:14:57.288Z,8.30
2023-01-05T07:17:24.783Z,8.30
2023-01-05T07:19:51.452Z,8.30
2023-01-05T07:22:18.182Z,8.30
2023-01-05T07:24:44.759Z,8.30
2023-01-05T07:27:11.374Z,8.30
2023-01-05T07:29:38.031Z,8.30
2023-01-05T07:32:05.140Z,8.30
2023-01-05T07:34:31.830Z,8.30
2023-01-05T07:36:58.572Z,8.20
2023-01-05T07:39:25.214Z,8.30
2023-01-05T07:41:51.829Z,8.20
2023-01-05T07:44:18.456Z,8.20
2023-01-05T07:46:45.150Z,8.20
2023-01-05T07:49:11.831Z,8.20
2023-01-05T07:51:38.598Z,8.20
2023-01-05T07:54:05.191Z,8.20
2023-01-05T07:56:31.804Z,8.30
2023-01-05T07:58:59.186Z,8.20
2023-01-05T08:01:25.990Z,8.20
2023-01-05T08:03:52.964Z,8.30
2023-01-05T08:06:20.436Z,8.30
2023-01-05T08:08:47.961Z,8.20
2023-01-05T08:11:17.463Z,8.20
2023-01-05T08:14:00.493Z,8.30
2023-01-05T08:16:31.494Z,8.30
2023-01-05T08:18:59.816Z,8.30
2023-01-05T08:21:26.707Z,8.30
2023-01-05T08:23:53.829Z,8.30
2023-01-05T08:26:23.417Z,8.30
2023-01-05T08:28:51.776Z,8.30
2023-01-05T08:31:26.340Z,8.30
2023-01-05T08:34:00.530Z,8.40
2023-01-05T08:36:27.672Z,8.30
2023-01-05T08:38:55.073Z,8.40
2023-01-05T08:41:24.178Z,8.30
2023-01-05T08:43:55.550Z,8.40
2023-01-05T08:46:24.807Z,8.40
2023-01-05T08:48:53.054Z,8.40
2023-01-05T08:51:19.965Z,8.40
2023-01-05T08:53:47.076Z,8.40
2023-01-05T08:56:14.251Z,8.40
2023-01-05T08:58:42.095Z,8.40
2023-01-05T09:01:10.720Z,8.40
2023-01-05T09:03:37.712Z,8.40
2023-01-05T09:06:09.328Z,8.40
2023-01-05T09:08:36.323Z,8.40
2023-01-05T09:11:08.049Z,8.40
2023-01-05T09:13:35.082Z,8.40
2023-01-05T09:16:24.828Z,8.50
2023-01-05T09:19:04.124Z,8.50
2023-01-05T09:21:30.796Z,8.40
2023-01-05T09:23:59.217Z,8.50
2023-01-05T09:26:25.913Z,8.50
2023-01-05T09:28:52.605Z,8.50
2023-01-05T09:31:21.489Z,8.50
2023-01-05T09:33:48.739Z,8.50
2023-01-05T09:36:17.220Z,8.50
2023-01-05T09:38:47.947Z,8.50
2023-01-05T09:41:34.805Z,8.50
2023-01-05T09:44:36.736Z,8.50
2023-01-05T09:47:18.402Z,8.50
2023-01-05T09:49:48.540Z,8.50
2023-01-05T09:52:15.640Z,8.50
2023-01-05T09:54:42.308Z,8.50
2023-01-05T09:57:21.867Z,8.50
2023-01-05T09:59:52.281Z,8.50
2023-01-05T10:02:26.782Z,8.50
2023-01-05T10:04:55.303Z,8.50
2023-01-05T10:07:34.290Z,8.60
2023-01-05T10:10:17.705Z,8.60
2023-01-05T10:13:05.447Z,8.50
2023-01-05T10:15:46.102Z,8.60
2023-01-05T10:18:17.700Z,8.60
2023-01-05T10:21:12.267Z,8.60
2023-01-05T10:23:50.771Z,8.60
2023-01-05T10:26:58.606Z,8.60
2023-01-05T10:29:38.719Z,8.60
2023-01-05T10:32:05.776Z,8.60
2023-01-05T10:34:50.691Z,8.70
2023-01-05T10:37:45.336Z,8.70
2023-01-05T10:40:12.096Z,8.70
2023-01-05T10:43:01.246Z,8.70
2023-01-05T10:45:30.609Z,8.70
2023-01-05T10:47:58.989Z,8.70
2023-01-05T10:50:35.184Z,8.70
2023-01-05T10:53:08.927Z,8.70
2023-01-05T10:55:47.375Z,8.70
2023-01-05T10:58:29.007Z,8.70
2023-01-05T11:01:17.475Z,8.70
2023-01-05T11:04:25.121Z,8.70
2023-01-05T11:06:36.499Z,8.70
2023-01-05T11:09:22.639Z,8.80
2023-01-05T11:12:20.340Z,8.80
2023-01-05T11:14:59.101Z,8.80
2023-01-05T11:17:28.962Z,8.90
2023-01-05T11:19:58.162Z,8.90
2023-01-05T11:22:36.416Z,8.90
2023-01-05T11:25:27.772Z,9.00
2023-01-05T11:28:17.826Z,8.90
2023-01-05T11:31:00.547Z,8.90
2023-01-05T11:33:29.693Z,8.90
2023-01-05T11:35:57.988Z,8.90
2023-01-05T11:38:27.998Z,8.90
2023-01-05T11:40:56.849Z,8.90
2023-01-05T11:43:27.794Z,8.90
2023-01-05T11:46:00.590Z,8.90
2023-01-05T11:48:31.956Z,8.90
2023-01-05T11:50:59.224Z,9.00
2023-01-05T11:53:34.970Z,9.00
2023-01-05T11:56:07.729Z,9.00
2023-01-05T11:58:46.157Z,9.00
2023-01-05T12:01:41.372Z,8.90
2023-01-05T12:04:14.219Z,9.00
2023-01-05T12:07:17.737Z,9.00
2023-01-05T12:09:53.977Z,8.90
2023-01-05T12:12:30.870Z,9.00
2023-01-05T12:15:15.959Z,9.00
2023-01-05T12:18:07.061Z,8.90
2023-01-05T12:20:56.723Z,8.90
2023-01-05T12:23:56.126Z,9.00
2023-01-05T12:26:26.010Z,8.90
2023-01-05T12:35:42.124Z,9.00
2023-01-05T12:38:20.526Z,9.00
2023-01-05T12:41:10.737Z,9.00
2023-01-05T12:44:15.353Z,9.00
2023-01-05T12:46:58.047Z,9.00
2023-01-05T12:49:32.211Z,9.00
2023-01-05T12:52:21.763Z,9.00
2023-01-05T12:55:14.746Z,9.00
2023-01-05T12:57:45.473Z,8.90
2023-01-05T13:00:18.374Z,8.90
2023-01-05T13:02:56.482Z,8.90
2023-01-05T13:05:45.998Z,8.90
2023-01-05T13:08:34.800Z,9.00
2023-01-05T13:11:05.409Z,9.00
2023-01-05T13:13:37.318Z,9.00
2023-01-05T13:16:19.173Z,9.00
2023-01-05T13:19:12.681Z,8.90
2023-01-05T13:21:42.556Z,9.00
2023-01-05T13:24:17.740Z,8.90
2023-01-05T13:26:44.319Z,8.90
2023-01-05T13:29:25.081Z,9.00
2023-01-05T13:32:01.580Z,9.00
2023-01-05T13:34:41.800Z,8.90
2023-01-05T13:37:19.716Z,8.90
2023-01-05T13:40:28.751Z,9.00
2023-01-05T13:43:10.553Z,9.00
2023-01-05T13:46:16.120Z,8.90
2023-01-05T13:49:05.544Z,8.90
2023-01-05T13:51:53.835Z,9.00
2023-01-05T13:54:43.390Z,9.00
2023-01-05T13:57:27.487Z,8.90
2023-01-05T14:00:10.205Z,9.00
2023-01-05T14:02:43.795Z,8.90
2023-01-05T14:05:33.365Z,8.90
2023-01-05T14:08:04.487Z,9.00
2023-01-05T14:10:33.680Z,9.00
2023-01-05T14:13:02.034Z,8.90
2023-01-05T14:15:40.477Z,8.90
2023-01-05T14:18:11.794Z,8.90
2023-01-05T14:20:49.893Z,9.00
2023-01-05T14:23:25.401Z,8.90
2023-01-05T14:26:00.482Z,8.90
2023-01-05T14:28:30.438Z,8.90
2023-01-05T14:31:16.146Z,8.90
2023-01-05T14:33:49.613Z,8.90
2023-01-05T14:36:37.463Z,8.90
2023-01-05T14:39:07.851Z,8.90
2023-01-05T14:41:34.818Z,8.90
2023-01-05T14:44:16.666Z,8.90
2023-01-05T14:46:55.442Z,8.90
2023-01-05T14:49:36.200Z,8.90
2023-01-05T14:52:05.444Z,8.90
2023-01-05T14:55:05.764Z,8.90
2023-01-05T14:57:49.163Z,8.90
2023-01-05T15:00:29.995Z,8.90
2023-01-05T15:03:11.992Z,8.90
2023-01-05T15:05:44.812Z,8.90
2023-01-05T15:08:37.766Z,8.80
2023-01-05T15:11:32.583Z,8.80
2023-01-05T15:14:37.187Z,8.80
2023-01-05T15:17:47.968Z,8.80
2023-01-05T15:20:54.120Z,8.80
2023-01-05T15:23:39.372Z,8.80
2023-01-05T15:26:44.005Z,8.80
2023-01-05T15:29:19.009Z,8.80
2023-01-05T15:31:51.659Z,8.80
2023-01-05T15:34:47.127Z,8.80
2023-01-05T15:37:34.230Z,8.80
2023-01-05T15:40:04.158Z,8.80
2023-01-05T15:42:41.439Z,8.80
2023-01-05T15:45:36.425Z,8.80
2023-01-05T15:48:11.072Z,8.80
2023-01-05T15:50:48.711Z,8.80
2023-01-05T15:53:32.865Z,8.80
2023-01-05T15:56:01.049Z,8.80
2023-01-05T15:58:30.423Z,8.80
2023-01-05T16:01:11.409Z,8.80
2023-01-05T16:03:40.389Z,8.70
2023-01-05T16:06:14.103Z,8.70
2023-01-05T16:08:43.953Z,8.80
2023-01-05T16:11:14.191Z,8.70
2023-01-05T16:13:57.439Z,8.70
2023-01-05T16:19:20.896Z,8.70
2023-01-05T16:22:09.102Z,8.70
2023-01-05T16:24:43.007Z,8.80
2023-01-05T16:27:12.655Z,8.80
2023-01-05T16:29:45.723Z,8.70
2023-01-05T16:32:37.282Z,8.80
2023-01-05T16:35:41.465Z,8.80
2023-01-05T16:38:08.446Z,8.80
2023-01-05T16:40:50.229Z,8.70
2023-01-05T16:43:34.511Z,8.60
2023-01-05T16:46:28.083Z,8.60
2023-01-05T16:49:17.250Z,8.50
2023-01-05T16:51:43.933Z,8.40
2023-01-05T16:54:40.455Z,8.30
2023-01-05T16:57:30.868Z,8.30
2023-01-05T16:59:57.998Z,8.30
2023-01-05T17:02:46.079Z,8.30
2023-01-05T17:05:20.249Z,8.20
2023-01-05T17:07:49.489Z,8.20
2023-01-05T17:10:20.166Z,8.10
2023-01-05T17:12:55.996Z,8.10
2023-01-05T17:15:25.479Z,8.00
2023-01-05T17:17:55.158Z,7.90
2023-01-05T17:20:23.660Z,8.00
2023-01-05T17:22:50.763Z,7.90
2023-01-05T17:25:17.616Z,7.90
2023-01-05T17:27:44.190Z,7.80
2023-01-05T17:30:22.365Z,7.80
2023-01-05T17:32:49.117Z,7.80
2023-01-05T17:35:18.500Z,7.80
2023-01-05T17:37:46.730Z,7.80
2023-01-05T17:40:18.552Z,7.80
2023-01-05T17:42:45.968Z,7.80
2023-01-05T17:45:18.543Z,7.80
2023-01-05T17:47:45.448Z,7.80
2023-01-05T17:50:18.977Z,7.80
2023-01-05T17:52:45.730Z,7.80
2023-01-05T17:55:13.050Z,7.80
2023-01-05T17:57:40.369Z,7.80
2023-01-05T18:00:10.848Z,7.80
2023-01-05T18:02:37.876Z,7.80
2023-01-05T18:05:05.012Z,7.80
2023-01-05T18:07:32.081Z,7.80
2023-01-05T18:09:59.699Z,7.90
2023-01-05T18:12:27.272Z,7.90
2023-01-05T18:14:54.511Z,8.00
2023-01-05T18:17:21.284Z,8.00
2023-01-05T18:19:47.943Z,8.00
2023-01-05T18:22:14.961Z,8.00
2023-01-05T18:24:42.417Z,8.10
2023-01-05T18:27:10.107Z,8.10
2023-01-05T18:29:37.742Z,8.10
2023-01-05T18:32:05.614Z,8.10
2023-01-05T18:34:32.739Z,8.20
2023-01-05T18:37:06.378Z,8.20
2023-01-05T18:39:37.527Z,8.20
2023-01-05T18:42:04.275Z,8.30
2023-01-05T18:44:30.946Z,8.30
2023-01-05T18:46:57.540Z,8.30
2023-01-05T18:49:24.166Z,8.40
2023-01-05T18:51:52.676Z,8.40
2023-01-05T18:54:20.044Z,8.40
2023-01-05T18:56:47.068Z,8.40
2023-01-05T18:59:14.199Z,8.40
2023-01-05T19:01:42.868Z,8.40
2023-01-05T19:04:14.997Z,8.40
2023-01-05T19:06:42.234Z,8.50
2023-01-05T19:09:11.095Z,8.50
2023-01-05T19:11:39.359Z,8.40
2023-01-05T19:14:06.314Z,8.40
2023-01-05T19:16:35.012Z,8.40
2023-01-05T19:19:06.392Z,8.40
2023-01-05T19:21:34.918Z,8.40
2023-01-05T19:24:02.769Z,8.40
2023-01-05T19:26:32.182Z,8.40
2023-01-05T19:29:00.629Z,8.30
2023-01-05T19:31:28.931Z,8.30
2023-01-05T19:33:58.768Z,8.30
2023-01-05T19:36:32.275Z,8.30
2023-01-05T19:39:10.840Z,8.30
2023-01-05T19:41:39.239Z,8.30
2023-01-05T19:44:06.142Z,8.30
2023-01-05T19:46:35.241Z,8.30
2023-01-05T19:49:02.550Z,8.30
2023-01-05T19:51:30.299Z,8.30
2023-01-05T19:53:59.509Z,8.30
2023-01-05T19:56:29.678Z,8.30
2023-01-05T19:58:59.048Z,8.20
2023-01-05T20:01:27.449Z,8.10
2023-01-05T20:03:55.371Z,8.20
2023-01-05T20:06:24.540Z,8.20
2023-01-05T20:08:52.570Z,8.20
2023-01-05T20:11:39.216Z,8.10
2023-01-05T20:14:10.502Z,8.10
2023-01-05T20:16:37.950Z,8.10
2023-01-05T20:19:05.323Z,8.10
2023-01-05T20:21:35.165Z,8.20
2023-01-05T20:24:06.356Z,8.10
2023-01-05T20:26:33.218Z,8.20
2023-01-05T20:29:00.646Z,8.20
2023-01-05T20:31:31.340Z,8.20
2023-01-05T20:34:00.658Z,8.30
2023-01-05T20:36:28.575Z,8.20
2023-01-05T20:38:56.419Z,8.20
2023-01-05T20:41:28.399Z,8.20
2023-01-05T20:43:55.838Z,8.30
2023-01-05T20:46:26.683Z,8.20
2023-01-05T20:48:54.248Z,8.20
2023-01-05T20:51:21.693Z,8.10
2023-01-05T20:53:49.893Z,8.10
2023-01-05T20:56:19.979Z,8.10
2023-01-05T20:58:49.183Z,8.10
2023-01-05T21:01:16.289Z,8.10
2023-01-05T21:03:44.734Z,8.10
2023-01-05T21:06:15.053Z,8.10
2023-01-05T21:08:43.824Z,8.10
2023-01-05T21:11:15.757Z,8.20
2023-01-05T21:16:22.887Z,8.10
2023-01-05T21:18:50.188Z,8.10
2023-01-05T21:21:19.548Z,8.10
2023-01-05T21:23:48.676Z,8.20
2023-01-05T21:26:16.575Z,8.20
2023-01-05T21:28:44.524Z,8.20
2023-01-05T21:31:17.148Z,8.20
2023-01-05T21:33:44.347Z,8.20
2023-01-05T21:36:19.937Z,8.30
2023-01-05T21:39:03.835Z,8.30
2023-01-05T21:41:50.210Z,8.30
2023-01-05T21:44:17.729Z,8.30
2023-01-05T21:46:44.822Z,8.40
2023-01-05T21:49:12.589Z,8.40
2023-01-05T21:51:58.500Z,8.40
2023-01-05T21:54:43.971Z,8.40
2023-01-05T21:57:10.727Z,8.40
2023-01-05T21:59:37.568Z,8.40
2023-01-05T22:02:04.284Z,8.40
2023-01-05T22:04:30.974Z,8.40
2023-01-05T22:06:57.633Z,8.40
2023-01-05T22:09:24.509Z,8.50
2023-01-05T22:11:51.332Z,8.40
2023-01-05T22:14:18.199Z,8.30
2023-01-05T22:16:44.899Z,8.30
2023-01-05T22:19:11.679Z,8.30
2023-01-05T22:21:38.318Z,8.20
2023-01-05T22:24:05.619Z,8.30
2023-01-05T22:26:32.369Z,8.30
2023-01-05T22:28:59.007Z,8.30
2023-01-05T22:31:28.028Z,8.30
2023-01-05T22:33:57.639Z,8.30
2023-01-05T22:36:25.440Z,8.30
2023-01-05T22:38:53.479Z,8.40
2023-01-05T22:41:23.302Z,8.40
2023-01-05T22:43:50.713Z,8.40
2023-01-05T22:46:20.161Z,8.40
2023-01-05T22:48:49.003Z,8.40
2023-01-05T22:51:17.150Z,8.40
2023-01-05T22:53:44.467Z,8.40
2023-01-05T22:56:12.852Z,8.50
2023-01-05T22:58:40.230Z,8.50
2023-01-05T23:01:12.365Z,8.60
2023-01-05T23:03:39.880Z,8.60
2023-01-05T23:06:07.382Z,8.60
2023-01-05T23:08:35.883Z,8.60
2023-01-05T23:11:05.597Z,8.70
2023-01-05T23:13:32.219Z,8.70
2023-01-05T23:15:58.861Z,8.70
2023-01-05T23:18:25.748Z,8.70
2023-01-05T23:21:00.529Z,8.80
2023-01-05T23:23:30.533Z,8.80
2023-01-05T23:25:57.491Z,8.70
2023-01-05T23:28:26.029Z,8.70
2023-01-05T23:30:54.693Z,8.70
2023-01-05T23:33:24.435Z,8.80
2023-01-05T23:35:52.387Z,8.80
2023-01-05T23:38:20.126Z,8.80
2023-01-05T23:40:49.457Z,8.80
2023-01-05T23:43:18.829Z,8.80
2023-01-05T23:45:45.873Z,8.80
2023-01-05T23:48:13.287Z,8.80
2023-01-05T23:50:44.667Z,8.90
2023-01-05T23:53:12.120Z,8.90
2023-01-05T23:55:40.843Z,8.90
2023-01-05T23:58:08.325Z,9.00
